Time;durP1;ratioP1;P1;durP2;ratioP2;P2;SDS_P1;SDS_P2;PMS_P1;PMS_P2;Temp;Humidity;BMP_temperature;BMP_pressure;BME280_temperature;BME280_humidity;BME280_pressure;Samples;Min_cycle;Max_cycle;Signal;HPM_P1;HPM_P2
2022/08/29 00:01:36;;;;;;;1.38;0.70;;;23.30;60.50;;;;;;6223438;28;20034;-72
2022/08/29 00:04:37;;;;;;;1.42;0.90;;;23.30;60.40;;;;;;6217751;28;20048;-71
2022/08/29 00:07:38;;;;;;;0.75;0.50;;;23.30;60.40;;;;;;6217126;28;20155;-71
2022/08/29 00:10:40;;;;;;;1.10;0.77;;;23.30;60.50;;;;;;6216954;28;20468;-71
2022/08/29 00:13:41;;;;;;;0.75;0.70;;;23.30;60.40;;;;;;6216866;28;20060;-71
2022/08/29 00:16:41;;;;;;;1.67;0.90;;;23.30;60.40;;;;;;6217325;28;20026;-71
2022/08/29 00:19:42;;;;;;;0.93;0.70;;;23.30;60.40;;;;;;6220468;28;20366;-71
2022/08/29 00:22:43;;;;;;;1.08;0.90;;;23.30;60.40;;;;;;6216804;28;20022;-71
2022/08/29 00:25:44;;;;;;;0.88;0.70;;;23.30;60.40;;;;;;6216873;28;20033;-71
2022/08/29 00:28:45;;;;;;;1.08;0.80;;;23.30;60.40;;;;;;6217253;28;20667;-71
2022/08/29 00:31:46;;;;;;;0.88;0.73;;;23.30;60.40;;;;;;6222679;28;20051;-71
2022/08/29 00:34:46;;;;;;;0.57;0.52;;;23.30;60.40;;;;;;6216671;28;20036;-71
2022/08/29 00:37:48;;;;;;;0.85;0.70;;;23.30;60.40;;;;;;6221524;28;20041;-71
2022/08/29 00:40:51;;;;;;;1.33;0.82;;;23.30;60.40;;;;;;6215242;28;20074;-71
2022/08/29 00:43:52;;;;;;;0.98;0.70;;;23.30;60.40;;;;;;6215148;28;20045;-71
2022/08/29 00:46:56;;;;;;;0.88;0.60;;;23.20;60.40;;;;;;6222754;28;20472;-71
2022/08/29 00:49:57;;;;;;;2.05;0.93;;;23.30;60.40;;;;;;6216803;28;20022;-71
2022/08/29 00:53:00;;;;;;;1.35;0.75;;;23.30;60.40;;;;;;6216127;28;20040;-71
2022/08/29 00:56:01;;;;;;;1.25;0.50;;;23.30;60.40;;;;;;6216531;28;20033;-71
2022/08/29 00:59:11;;;;;;;0.93;0.70;;;23.30;60.40;;;;;;6216600;28;20033;-71
2022/08/29 01:02:11;;;;;;;1.65;0.90;;;23.30;60.50;;;;;;6222614;28;20473;-71
2022/08/29 01:05:15;;;;;;;0.75;0.70;;;23.30;60.40;;;;;;6216142;28;20087;-71
2022/08/29 01:08:15;;;;;;;1.08;0.82;;;23.30;60.50;;;;;;6216146;28;20022;-71
2022/08/29 01:14:37;;;;;;;1.20;0.70;;;23.30;60.40;;;;;;6216297;28;20026;-71
2022/08/29 01:17:44;;;;;;;0.57;0.57;;;23.30;60.40;;;;;;6215977;28;20063;-72
2022/08/29 01:21:00;;;;;;;1.20;0.90;;;23.30;60.40;;;;;;6222339;28;20030;-69
2022/08/29 01:24:27;;;;;;;0.90;0.60;;;23.30;60.40;;;;;;6221311;28;20104;-71
2022/08/29 01:27:30;;;;;;;1.02;0.70;;;23.30;60.40;;;;;;6223938;28;20034;-71
2022/08/29 01:30:31;;;;;;;1.30;0.88;;;23.30;60.40;;;;;;6220490;28;20022;-71
2022/08/29 01:33:41;;;;;;;0.98;0.60;;;23.30;60.40;;;;;;6219905;28;20079;-71
2022/08/29 01:36:52;;;;;;;0.80;0.80;;;23.30;60.50;;;;;;6219942;28;20024;-71
2022/08/29 01:39:53;;;;;;;1.50;1.10;;;23.30;60.40;;;;;;6220010;28;20045;-71
2022/08/29 01:42:56;;;;;;;1.55;0.90;;;23.30;60.40;;;;;;6219720;28;20534;-71
2022/08/29 01:45:57;;;;;;;0.82;0.60;;;23.30;60.40;;;;;;6219096;28;20062;-72
2022/08/29 01:49:00;;;;;;;1.02;0.70;;;23.30;61.30;;;;;;6220145;28;20637;-72
2022/08/29 01:52:01;;;;;;;1.00;0.80;;;23.30;60.50;;;;;;6219737;28;20018;-71
2022/08/29 01:55:02;;;;;;;1.30;0.75;;;23.30;60.40;;;;;;6219407;28;20022;-71
2022/08/29 01:58:04;;;;;;;0.70;0.63;;;23.30;60.50;;;;;;6219595;28;20105;-71
2022/08/29 02:01:06;;;;;;;0.85;0.60;;;23.20;60.40;;;;;;6219090;28;20133;-71
2022/08/29 02:04:07;;;;;;;1.05;0.80;;;23.30;60.40;;;;;;6218828;28;20038;-71
2022/08/29 02:07:08;;;;;;;0.90;0.63;;;23.30;60.40;;;;;;6218587;28;20167;-72
2022/08/29 02:10:09;;;;;;;0.98;0.80;;;23.30;60.40;;;;;;6218981;28;20036;-70
2022/08/29 02:13:10;;;;;;;1.40;1.02;;;23.30;60.40;;;;;;6218756;28;20054;-71
2022/08/29 02:16:12;;;;;;;0.73;0.60;;;23.30;60.40;;;;;;6219060;28;20384;-71
2022/08/29 02:19:13;;;;;;;1.08;0.88;;;23.30;60.40;;;;;;6219653;28;20629;-71
2022/08/29 02:22:14;;;;;;;0.90;0.70;;;23.30;60.40;;;;;;6219434;28;20522;-71
2022/08/29 02:28:36;;;;;;;1.05;0.65;;;23.20;60.30;;;;;;6219233;28;20112;-71
2022/08/29 02:31:39;;;;;;;1.42;0.75;;;23.30;60.40;;;;;;6219036;28;20040;-72
2022/08/29 02:34:45;;;;;;;0.85;0.60;;;23.30;60.40;;;;;;6219162;28;20022;-71
2022/08/29 02:37:45;;;;;;;1.10;0.88;;;23.30;60.50;;;;;;6218734;28;20520;-71
2022/08/29 02:40:47;;;;;;;0.60;0.60;;;23.30;60.40;;;;;;6253190;27;20044;-71
2022/08/29 02:43:48;;;;;;;1.15;0.70;;;23.30;60.40;;;;;;6227343;28;20065;-72
2022/08/29 02:46:49;;;;;;;1.23;0.70;;;23.30;61.30;;;;;;6218940;28;20085;-71
2022/08/29 02:49:50;;;;;;;0.82;0.60;;;23.30;60.40;;;;;;6218924;28;20030;-71
2022/08/29 02:52:51;;;;;;;0.98;0.63;;;23.30;60.40;;;;;;6218117;28;20060;-71
2022/08/29 02:55:52;;;;;;;1.15;0.70;;;23.30;60.50;;;;;;6218124;28;20030;-71
2022/08/29 02:58:53;;;;;;;0.95;0.70;;;23.30;60.40;;;;;;6224856;28;20034;-71
2022/08/29 03:01:53;;;;;;;0.65;0.60;;;23.30;60.50;;;;;;6220936;28;20105;-71
2022/08/29 03:04:54;;;;;;;0.77;0.73;;;23.30;60.50;;;;;;6218365;28;20422;-71
2022/08/29 03:07:56;;;;;;;1.13;0.85;;;23.30;60.40;;;;;;6218192;28;20033;-71
2022/08/29 03:10:57;;;;;;;1.15;0.77;;;23.30;60.40;;;;;;6218521;28;20022;-71
2022/08/29 03:13:57;;;;;;;1.00;0.80;;;23.20;60.40;;;;;;6218195;28;20075;-71
2022/08/29 03:16:58;;;;;;;1.20;0.77;;;23.20;60.30;;;;;;6217765;28;20079;-71
2022/08/29 03:20:00;;;;;;;1.08;0.73;;;23.20;60.40;;;;;;6218712;28;20082;-71
2022/08/29 03:23:00;;;;;;;1.50;0.88;;;23.30;60.50;;;;;;6217907;28;20476;-71
2022/08/29 03:26:01;;;;;;;0.70;0.60;;;23.20;60.40;;;;;;6218315;28;20030;-71
2022/08/29 03:29:02;;;;;;;1.33;0.90;;;23.30;60.40;;;;;;6217773;28;20029;-71
2022/08/29 03:32:04;;;;;;;0.80;0.70;;;23.30;60.40;;;;;;6217877;28;20433;-71
2022/08/29 03:35:06;;;;;;;1.33;0.90;;;23.20;60.30;;;;;;6218050;28;20026;-71
2022/08/29 03:38:07;;;;;;;0.90;0.70;;;23.20;60.30;;;;;;6218030;28;20082;-71
2022/08/29 03:41:08;;;;;;;0.80;0.70;;;23.20;60.40;;;;;;6217834;28;20071;-71
2022/08/29 03:44:09;;;;;;;1.05;0.77;;;23.20;60.40;;;;;;6217670;28;20022;-71
2022/08/29 03:47:10;;;;;;;1.10;0.70;;;23.20;60.30;;;;;;6217057;28;20044;-72
2022/08/29 03:50:12;;;;;;;0.68;0.60;;;23.20;60.40;;;;;;6217928;28;20038;-71
2022/08/29 03:53:13;;;;;;;0.90;0.80;;;23.20;60.40;;;;;;6217347;28;20111;-71
2022/08/29 03:56:15;;;;;;;1.08;0.70;;;23.20;60.40;;;;;;6217228;28;20030;-72
2022/08/29 03:59:17;;;;;;;1.10;0.70;;;23.30;60.50;;;;;;6217197;28;20022;-71
2022/08/29 04:02:18;;;;;;;1.40;0.90;;;23.20;60.40;;;;;;6217570;28;20056;-70
2022/08/29 04:05:20;;;;;;;1.52;0.82;;;23.20;60.40;;;;;;6217062;28;20042;-71
2022/08/29 04:08:21;;;;;;;0.70;0.60;;;23.20;60.40;;;;;;6223476;28;20053;-71
2022/08/29 04:11:23;;;;;;;0.82;0.63;;;23.30;60.50;;;;;;6223688;28;20032;-71
2022/08/29 04:14:24;;;;;;;1.63;1.00;;;23.20;60.30;;;;;;6217189;28;20021;-71
2022/08/29 04:17:24;;;;;;;1.95;1.15;;;23.20;60.30;;;;;;6217124;28;20022;-71
2022/08/29 04:20:28;;;;;;;1.45;0.60;;;23.20;60.40;;;;;;6217217;28;20053;-71
2022/08/29 04:23:29;;;;;;;0.80;0.70;;;23.20;60.40;;;;;;6216957;28;20067;-71
2022/08/29 04:26:30;;;;;;;1.00;0.88;;;23.30;60.40;;;;;;6217035;28;20022;-71
2022/08/29 04:29:32;;;;;;;0.98;0.70;;;23.20;60.40;;;;;;6216798;28;20047;-71
2022/08/29 04:32:33;;;;;;;0.80;0.65;;;23.20;60.40;;;;;;6217054;28;20025;-71
2022/08/29 04:35:36;;;;;;;0.93;0.75;;;23.20;60.40;;;;;;6217323;28;20555;-71
2022/08/29 04:38:36;;;;;;;1.15;0.77;;;23.20;60.40;;;;;;6216432;28;20096;-71
2022/08/29 04:41:38;;;;;;;1.20;0.90;;;23.20;60.40;;;;;;6216693;28;20064;-71
2022/08/29 04:44:38;;;;;;;0.82;0.73;;;23.20;60.30;;;;;;6216588;28;20117;-71
2022/08/29 04:47:41;;;;;;;1.00;0.77;;;23.20;60.60;;;;;;6216467;28;20030;-71
2022/08/29 04:50:41;;;;;;;1.15;0.70;;;23.20;60.30;;;;;;6216579;28;20151;-71
2022/08/29 04:53:42;;;;;;;1.58;0.90;;;23.20;60.40;;;;;;6216801;28;20018;-71
2022/08/29 04:56:42;;;;;;;0.93;0.75;;;23.20;60.40;;;;;;6214843;28;20037;-71
2022/08/29 05:00:33;;;;;;;1.90;0.82;;;23.20;60.40;;;;;;6215733;28;20068;-71
2022/08/29 05:03:33;;;;;;;0.82;0.70;;;23.20;60.40;;;;;;6193348;28;20038;-71
2022/08/29 05:06:34;;;;;;;1.52;0.70;;;23.20;60.40;;;;;;6206670;28;20524;-72
2022/08/29 05:09:35;;;;;;;1.10;0.80;;;23.20;60.40;;;;;;6216407;28;20018;-71
2022/08/29 05:12:36;;;;;;;0.73;0.63;;;23.20;60.40;;;;;;6216327;28;20148;-71
2022/08/29 05:15:37;;;;;;;0.82;0.73;;;23.20;60.40;;;;;;6216135;28;20018;-71
2022/08/29 05:18:40;;;;;;;1.30;0.70;;;23.20;60.40;;;;;;6216315;28;20022;-71
2022/08/29 05:21:41;;;;;;;0.98;0.63;;;23.20;60.40;;;;;;6216338;28;20026;-72
2022/08/29 05:24:42;;;;;;;1.55;0.85;;;23.20;60.40;;;;;;6215954;28;20643;-71
2022/08/29 05:27:43;;;;;;;0.95;0.60;;;23.20;60.40;;;;;;6216234;28;20518;-71
2022/08/29 05:30:44;;;;;;;1.08;0.80;;;23.20;60.40;;;;;;6215859;28;20082;-71
2022/08/29 05:33:45;;;;;;;1.35;0.82;;;23.20;60.30;;;;;;6216293;28;20079;-71
2022/08/29 05:36:45;;;;;;;0.93;0.73;;;23.20;60.40;;;;;;6216458;28;20022;-71
2022/08/29 05:39:47;;;;;;;1.02;0.80;;;23.20;60.30;;;;;;6214666;28;20079;-71
2022/08/29 05:42:48;;;;;;;0.93;0.82;;;23.20;60.60;;;;;;6216126;28;20060;-71
2022/08/29 05:45:48;;;;;;;2.17;0.77;;;23.20;60.30;;;;;;6215231;28;20499;-71
2022/08/29 05:48:49;;;;;;;1.60;0.90;;;23.20;60.40;;;;;;6216016;28;20068;-71
2022/08/29 05:51:54;;;;;;;1.15;0.90;;;23.20;60.30;;;;;;6215988;28;20025;-71
2022/08/29 05:54:55;;;;;;;1.55;0.70;;;23.20;60.30;;;;;;6215992;28;20126;-71
2022/08/29 05:57:55;;;;;;;1.15;0.80;;;23.20;60.20;;;;;;6215784;28;20030;-71
2022/08/29 06:00:56;;;;;;;1.33;0.95;;;23.20;60.20;;;;;;6204518;28;20945;-71
2022/08/29 06:03:57;;;;;;;1.13;0.80;;;23.20;60.20;;;;;;6203524;28;20130;-72
2022/08/29 06:06:58;;;;;;;3.55;1.27;;;23.20;60.20;;;;;;6202231;28;20440;-71
2022/08/29 06:10:00;;;;;;;3.13;1.15;;;23.20;59.50;;;;;;6226868;28;20041;-72
2022/08/29 06:13:01;;;;;;;3.65;1.85;;;23.20;59.40;;;;;;6219029;28;20532;-71
2022/08/29 06:16:01;;;;;;;1.42;1.00;;;23.20;59.50;;;;;;6218517;28;20018;-71
2022/08/29 06:19:02;;;;;;;1.55;1.15;;;23.20;59.90;;;;;;6218706;28;20361;-71
2022/08/29 06:22:04;;;;;;;2.92;1.48;;;23.20;59.70;;;;;;6218668;28;20029;-72
2022/08/29 06:25:05;;;;;;;2.70;1.67;;;23.20;59.70;;;;;;6217778;28;20034;-71
2022/08/29 06:28:06;;;;;;;3.30;1.77;;;23.20;59.50;;;;;;6221837;28;20082;-71
2022/08/29 06:31:09;;;;;;;2.70;1.67;;;23.20;59.50;;;;;;6221544;28;20022;-71
2022/08/29 06:34:10;;;;;;;8.82;3.15;;;23.20;59.70;;;;;;6221231;28;20113;-71
2022/08/29 06:37:11;;;;;;;6.00;2.75;;;23.20;57.40;;;;;;6221743;28;20029;-71
2022/08/29 06:40:11;;;;;;;4.00;1.98;;;23.20;57.50;;;;;;6221415;28;20109;-71
2022/08/29 06:43:12;;;;;;;4.72;2.30;;;23.20;59.10;;;;;;6221335;28;20492;-71
2022/08/29 06:46:25;;;;;;;4.47;2.10;;;23.20;59.40;;;;;;6193798;28;20388;-71
2022/08/29 06:49:27;;;;;;;5.22;2.22;;;23.20;59.20;;;;;;6220872;28;20164;-71
2022/08/29 06:52:27;;;;;;;5.00;2.20;;;23.20;59.20;;;;;;6221462;28;20022;-71
2022/08/29 06:55:28;;;;;;;3.13;2.03;;;23.20;59.20;;;;;;6221359;28;20079;-71
2022/08/29 06:58:28;;;;;;;3.50;2.00;;;23.20;59.30;;;;;;6221035;28;20030;-71
2022/08/29 07:01:30;;;;;;;5.13;2.42;;;23.20;59.40;;;;;;6220459;28;20030;-71
2022/08/29 07:04:31;;;;;;;4.30;2.20;;;23.20;59.30;;;;;;6219788;28;20126;-71
2022/08/29 07:07:32;;;;;;;3.45;2.30;;;23.20;59.40;;;;;;6220841;28;20025;-71
2022/08/29 07:10:33;;;;;;;4.65;2.63;;;23.20;59.50;;;;;;6226876;28;20124;-71
2022/08/29 07:13:34;;;;;;;5.32;2.13;;;23.20;59.50;;;;;;6220764;28;20446;-71
2022/08/29 07:16:37;;;;;;;5.05;2.30;;;23.20;59.50;;;;;;6220686;28;20461;-71
2022/08/29 07:19:38;;;;;;;3.95;2.13;;;23.20;59.50;;;;;;6220291;28;20504;-71
2022/08/29 07:22:38;;;;;;;3.13;1.95;;;23.20;59.50;;;;;;6219726;28;20018;-71
2022/08/29 07:25:39;;;;;;;2.85;1.98;;;23.20;59.50;;;;;;6220078;28;20041;-71
2022/08/29 07:28:40;;;;;;;3.72;2.03;;;23.20;59.50;;;;;;6218604;28;20030;-71
2022/08/29 07:31:42;;;;;;;3.08;1.90;;;23.20;59.60;;;;;;6220096;28;20045;-71
2022/08/29 07:34:43;;;;;;;4.03;1.88;;;23.20;59.60;;;;;;6220299;28;20086;-71
2022/08/29 07:37:44;;;;;;;3.33;2.05;;;23.20;59.60;;;;;;6226010;28;20532;-71
2022/08/29 07:40:45;;;;;;;2.88;1.90;;;23.20;59.60;;;;;;6220611;28;20032;-71
2022/08/29 07:43:45;;;;;;;2.88;1.92;;;23.20;59.60;;;;;;6219568;28;20058;-71
2022/08/29 07:46:46;;;;;;;3.10;2.03;;;23.20;59.60;;;;;;6220426;28;20026;-71
2022/08/29 07:49:47;;;;;;;4.05;1.92;;;23.20;59.60;;;;;;6220099;28;20034;-71
2022/08/29 07:52:47;;;;;;;3.47;1.90;;;23.20;59.70;;;;;;6220160;28;20102;-71
2022/08/29 07:55:48;;;;;;;4.13;1.98;;;23.20;59.70;;;;;;6219678;28;20067;-71
2022/08/29 07:58:49;;;;;;;2.38;1.83;;;23.20;59.70;;;;;;6225982;28;20026;-71
2022/08/29 08:01:49;;;;;;;2.50;1.88;;;23.20;59.70;;;;;;6219897;28;20018;-71
2022/08/29 08:04:50;;;;;;;4.38;2.30;;;23.20;59.70;;;;;;6219606;28;20074;-71
2022/08/29 08:07:51;;;;;;;2.47;1.88;;;23.20;59.70;;;;;;6219518;28;20026;-71
2022/08/29 08:10:52;;;;;;;3.58;1.83;;;23.20;59.70;;;;;;6209706;28;20033;-71
2022/08/29 08:13:54;;;;;;;3.15;1.70;;;23.20;59.70;;;;;;6211172;28;20045;-72
2022/08/29 08:16:54;;;;;;;4.47;2.10;;;23.20;59.80;;;;;;6216890;28;20022;-71
2022/08/29 08:19:55;;;;;;;11.52;3.63;;;23.20;59.60;;;;;;6216726;28;20396;-71
2022/08/29 08:22:56;;;;;;;2.90;1.60;;;23.20;58.90;;;;;;6224791;28;20072;-71
2022/08/29 08:25:57;;;;;;;6.35;2.33;;;23.20;59.30;;;;;;6215249;28;20076;-71
2022/08/29 08:28:57;;;;;;;5.55;2.58;;;23.20;59.10;;;;;;6216519;28;20453;-72
2022/08/29 08:31:58;;;;;;;7.20;2.85;;;23.20;59.00;;;;;;6215788;28;20070;-72
2022/08/29 08:34:59;;;;;;;4.80;2.60;;;23.20;59.10;;;;;;6216733;28;20075;-71
2022/08/29 08:38:01;;;;;;;6.32;3.20;;;23.20;59.10;;;;;;6237513;28;20463;-71
2022/08/29 08:41:16;;;;;;;5.45;2.70;;;23.20;59.00;;;;;;6221434;28;20079;-71
2022/08/29 08:44:23;;;;;;;5.07;2.72;;;23.20;59.00;;;;;;6216686;28;20026;-72
2022/08/29 08:47:29;;;;;;;8.48;3.08;;;23.10;59.10;;;;;;6255292;28;20018;-71
2022/08/29 08:50:44;;;;;;;6.05;3.13;;;23.10;59.00;;;;;;6217008;28;20036;-71
2022/08/29 08:53:49;;;;;;;5.72;2.53;;;23.10;59.00;;;;;;6234065;28;20157;-71
2022/08/29 08:56:52;;;;;;;;;;;23.10;59.10;;;;;;6216247;28;20121;-71
2022/08/29 08:59:57;;;;;;;7.40;3.30;;;23.10;58.50;;;;;;6216032;28;19992;-71
2022/08/29 09:03:34;;;;;;;5.57;3.00;;;23.10;58.90;;;;;;6226070;28;20029;-71
2022/08/29 09:07:05;;;;;;;6.32;3.13;;;23.10;58.90;;;;;;6216693;28;20045;-72
2022/08/29 09:10:20;;;;;;;8.15;3.20;;;23.10;58.90;;;;;;6217320;28;20174;-72
2022/08/29 09:13:21;;;;;;;6.35;3.67;;;23.10;58.70;;;;;;6231849;28;20037;-71
2022/08/29 09:16:30;;;;;;;9.10;3.92;;;23.10;58.90;;;;;;6221054;28;20030;-71
2022/08/29 09:19:31;;;;;;;8.05;4.03;;;23.10;58.00;;;;;;6216578;28;20024;-71
2022/08/29 09:22:33;;;;;;;11.85;3.92;;;23.10;57.90;;;;;;6221305;28;20018;-71
2022/08/29 09:25:35;;;;;;;11.82;4.43;;;23.20;58.70;;;;;;6225265;28;20169;-70
2022/08/29 09:28:35;;;;;;;13.80;3.63;;;23.20;58.80;;;;;;6215471;28;20026;-71
2022/08/29 09:31:36;;;;;;;15.52;3.75;;;23.20;59.20;;;;;;6215726;28;20026;-71
2022/08/29 09:34:43;;;;;;;6.57;3.53;;;23.20;59.30;;;;;;6216290;28;20110;-72
2022/08/29 09:37:55;;;;;;;6.93;2.95;;;23.20;59.50;;;;;;6217053;28;20480;-71
2022/08/29 09:40:57;;;;;;;5.18;3.20;;;23.20;59.40;;;;;;6226684;28;20126;-71
2022/08/29 09:43:58;;;;;;;5.07;2.83;;;23.20;59.20;;;;;;6215179;28;20058;-72
2022/08/29 09:47:24;;;;;;;6.90;3.03;;;23.20;59.10;;;;;;6220212;28;20051;-71
2022/08/29 09:50:27;;;;;;;6.97;2.90;;;23.20;59.30;;;;;;6242617;28;20108;-71
2022/08/29 09:53:27;;;;;;;6.82;3.28;;;23.20;59.20;;;;;;6219601;28;20049;-71
2022/08/29 09:56:28;;;;;;;6.35;3.20;;;23.20;59.20;;;;;;6220151;28;20502;-71
2022/08/29 09:59:35;;;;;;;5.13;3.05;;;23.20;59.20;;;;;;6232943;28;20049;-72
2022/08/29 10:02:42;;;;;;;8.88;3.08;;;23.20;59.20;;;;;;6219476;28;20022;-71
2022/08/29 10:05:45;;;;;;;6.82;3.30;;;23.20;59.20;;;;;;6218280;28;20141;-71
2022/08/29 10:09:00;;;;;;;6.15;3.00;;;23.20;59.20;;;;;;6231878;28;20032;-71
2022/08/29 10:12:13;;;;;;;8.55;3.13;;;23.20;59.20;;;;;;6231477;28;20026;-72
2022/08/29 10:15:51;;;;;;;5.03;2.83;;;23.20;59.40;;;;;;6202118;28;20113;-71
2022/08/29 10:18:59;;;;;;;7.93;3.22;;;23.20;59.30;;;;;;6214534;28;20021;-71
2022/08/29 10:22:36;;;;;;;10.10;3.22;;;23.20;59.10;;;;;;6228361;28;20506;-70
2022/08/29 10:25:40;;;;;;;11.32;3.45;;;23.20;59.40;;;;;;6267218;28;20038;-72
2022/08/29 10:28:51;;;;;;;8.32;3.17;;;23.00;60.40;;;;;;6219650;28;20030;-70
2022/08/29 10:32:23;;;;;;;13.85;3.65;;;23.00;60.60;;;;;;6218942;28;20078;-71
2022/08/29 10:35:28;;;;;;;12.20;3.17;;;23.00;60.60;;;;;;6233334;28;20037;-71
2022/08/29 10:38:32;;;;;;;8.15;3.47;;;23.10;60.80;;;;;;6219593;28;20022;-71
2022/08/29 10:41:47;;;;;;;13.80;3.22;;;23.30;60.50;;;;;;6218166;28;20054;-71
2022/08/29 10:45:17;;;;;;;79.63;19.65;;;23.30;60.20;;;;;;6225269;28;20061;-71
2022/08/29 10:48:30;;;;;;;187.15;45.42;;;23.40;59.90;;;;;;6218483;28;20026;-70
2022/08/29 10:51:48;;;;;;;213.82;61.45;;;23.50;60.40;;;;;;6224266;28;20757;-70
2022/08/29 10:55:08;;;;;;;366.25;115.65;;;23.50;60.90;;;;;;6218234;28;20096;-71
2022/08/29 10:58:20;;;;;;;373.83;121.65;;;23.60;60.00;;;;;;6216045;28;20414;-71
2022/08/29 11:01:28;;;;;;;316.40;100.22;;;23.60;61.20;;;;;;6231547;28;20407;-71
2022/08/29 11:04:34;;;;;;;329.60;103.00;;;23.60;61.00;;;;;;6216964;28;20079;-70
2022/08/29 11:07:43;;;;;;;328.80;102.85;;;23.60;60.90;;;;;;6224055;28;20030;-69
2022/08/29 11:10:48;;;;;;;337.35;104.75;;;23.70;60.60;;;;;;6231920;28;20399;-69
2022/08/29 11:13:55;;;;;;;299.23;97.70;;;23.80;60.60;;;;;;6217305;28;20030;-69
2022/08/29 11:16:57;;;;;;;301.33;100.20;;;23.80;60.30;;;;;;6218589;28;20026;-71
2022/08/29 11:20:29;;;;;;;305.38;96.65;;;23.80;60.30;;;;;;6225306;28;20021;-71
2022/08/29 11:23:37;;;;;;;449.52;137.27;;;23.80;60.30;;;;;;6222506;28;20034;-71
2022/08/29 11:26:44;;;;;;;611.33;189.25;;;23.80;60.10;;;;;;6217401;28;20029;-71
2022/08/29 11:29:56;;;;;;;473.17;135.40;;;23.70;60.70;;;;;;6218706;28;20599;-71
2022/08/29 11:33:21;;;;;;;504.35;155.75;;;23.70;60.30;;;;;;6226560;28;20068;-71
2022/08/29 11:36:59;;;;;;;429.45;138.00;;;23.80;60.10;;;;;;6208943;28;20091;-73
2022/08/29 11:40:12;;;;;;;434.90;146.77;;;23.80;59.80;;;;;;6221923;28;20164;-73
2022/08/29 11:43:22;;;;;;;453.80;144.23;;;23.80;59.80;;;;;;6226028;28;20076;-73
2022/08/29 11:46:33;;;;;;;386.98;135.43;;;23.80;60.00;;;;;;6217541;28;20099;-71
2022/08/29 11:49:46;;;;;;;345.13;128.10;;;23.80;60.00;;;;;;6192130;28;20421;-70
2022/08/29 11:53:03;;;;;;;358.05;123.75;;;23.80;60.00;;;;;;6215157;28;20022;-71
2022/08/29 11:56:13;;;;;;;340.75;123.18;;;23.80;60.00;;;;;;6225330;28;20017;-70
2022/08/29 11:59:43;;;;;;;320.80;116.03;;;23.80;59.90;;;;;;6220762;28;20030;-70
2022/08/29 12:02:44;;;;;;;314.35;112.60;;;23.80;59.80;;;;;;6216351;28;20034;-73
2022/08/29 12:06:01;;;;;;;286.90;112.40;;;23.80;59.80;;;;;;6222814;28;20049;-70
2022/08/29 12:09:11;;;;;;;275.42;107.55;;;23.80;59.70;;;;;;6217327;28;20038;-71
2022/08/29 12:12:36;;;;;;;278.17;105.47;;;23.80;59.50;;;;;;6229002;28;20682;-73
2022/08/29 12:15:55;;;;;;;287.60;105.35;;;23.80;59.60;;;;;;6216970;28;20101;-73
2022/08/29 12:18:56;;;;;;;250.13;100.22;;;23.80;59.50;;;;;;6217363;28;20171;-71
2022/08/29 12:21:57;;;;;;;248.18;99.90;;;23.80;59.50;;;;;;6228543;28;20088;-73
2022/08/29 12:24:57;;;;;;;239.00;96.75;;;23.80;59.40;;;;;;6288670;28;20077;-74
2022/08/29 12:28:07;;;;;;;231.10;95.97;;;23.80;59.40;;;;;;6264814;28;20044;-73
2022/08/29 12:31:21;;;;;;;219.57;92.13;;;23.80;59.40;;;;;;6217082;28;20045;-71
2022/08/29 12:34:46;;;;;;;209.18;90.88;;;23.80;59.40;;;;;;6216727;28;20184;-73
2022/08/29 12:38:03;;;;;;;212.03;91.40;;;23.80;59.40;;;;;;6226691;28;20022;-73
2022/08/29 12:41:12;;;;;;;205.70;88.10;;;23.80;59.40;;;;;;6217052;28;20030;-71
2022/08/29 12:44:16;;;;;;;211.85;85.72;;;23.80;59.30;;;;;;6207334;28;20030;-71
2022/08/29 12:47:32;;;;;;;194.60;85.85;;;23.80;59.60;;;;;;6218276;28;20050;-71
2022/08/29 12:50:35;;;;;;;179.90;82.10;;;23.80;59.30;;;;;;6192876;28;20042;-73
2022/08/29 12:53:36;;;;;;;186.80;82.85;;;23.80;59.30;;;;;;6210635;28;20029;-73
2022/08/29 12:56:47;;;;;;;185.80;80.07;;;23.80;59.30;;;;;;6218765;28;20032;-73
2022/08/29 12:59:51;;;;;;;181.13;77.68;;;23.80;59.20;;;;;;6223673;28;20026;-71
2022/08/29 13:02:58;;;;;;;181.25;76.60;;;23.80;59.20;;;;;;6215683;28;20021;-70
2022/08/29 13:06:09;;;;;;;160.20;75.75;;;23.80;59.20;;;;;;6216094;28;20117;-70
2022/08/29 13:09:15;;;;;;;165.30;73.25;;;23.80;59.20;;;;;;6214979;28;20026;-73
2022/08/29 13:12:26;;;;;;;156.70;71.10;;;23.80;59.20;;;;;;6221712;28;20687;-70
2022/08/29 13:15:28;;;;;;;147.93;70.60;;;23.80;59.20;;;;;;6219122;28;20058;-73
2022/08/29 13:18:31;;;;;;;160.63;72.28;;;23.80;59.20;;;;;;6215017;28;20022;-71
2022/08/29 13:21:32;;;;;;;140.40;69.03;;;23.80;59.20;;;;;;6216245;28;20025;-71
2022/08/29 13:24:33;;;;;;;146.57;67.38;;;23.80;59.20;;;;;;6225166;28;20083;-71
2022/08/29 13:27:33;;;;;;;143.40;69.72;;;23.80;59.20;;;;;;6326310;28;20034;-70
2022/08/29 13:30:34;;;;;;;143.50;66.57;;;23.80;59.20;;;;;;6220274;28;20391;-71
2022/08/29 13:33:37;;;;;;;128.52;64.82;;;23.80;59.20;;;;;;6215283;28;20474;-72
2022/08/29 13:36:58;;;;;;;132.13;64.57;;;23.80;59.20;;;;;;6215826;28;20373;-70
2022/08/29 13:40:29;;;;;;;139.18;64.63;;;23.80;59.20;;;;;;6222310;28;20046;-73
2022/08/29 13:43:35;;;;;;;129.50;62.25;;;23.80;59.20;;;;;;6214855;28;20050;-71
2022/08/29 13:46:36;;;;;;;125.88;61.35;;;23.80;59.20;;;;;;6216428;28;20103;-71
2022/08/29 13:49:38;;;;;;;127.40;58.92;;;23.80;59.90;;;;;;6223517;28;20026;-71
2022/08/29 13:52:38;;;;;;;120.35;60.95;;;23.80;59.10;;;;;;6215318;28;20037;-72
2022/08/29 13:55:41;;;;;;;115.15;59.67;;;23.80;59.10;;;;;;6222428;28;20191;-71
2022/08/29 13:58:41;;;;;;;122.70;59.10;;;23.80;59.10;;;;;;6215465;28;20030;-71
2022/08/29 14:01:42;;;;;;;116.75;55.85;;;23.80;59.10;;;;;;6215122;28;20026;-71
2022/08/29 14:04:47;;;;;;;110.63;56.03;;;23.80;59.80;;;;;;6220762;28;20347;-72
2022/08/29 14:07:47;;;;;;;109.13;55.53;;;23.80;59.10;;;;;;6191801;28;20430;-71
2022/08/29 14:10:49;;;;;;;101.95;53.97;;;23.80;59.10;;;;;;6316606;28;20035;-71
2022/08/29 14:13:49;;;;;;;108.15;52.40;;;23.80;59.10;;;;;;6212148;28;20108;-72
2022/08/29 14:16:52;;;;;;;103.70;54.58;;;23.80;59.10;;;;;;6214331;28;20033;-71
2022/08/29 14:19:53;;;;;;;107.97;53.60;;;23.80;59.10;;;;;;6220462;28;20030;-72
2022/08/29 14:22:54;;;;;;;92.90;51.72;;;23.80;59.10;;;;;;6213650;28;20110;-71
2022/08/29 14:25:54;;;;;;;100.43;51.17;;;23.80;59.10;;;;;;6213169;28;20113;-72
2022/08/29 14:28:55;;;;;;;99.18;50.08;;;23.90;59.10;;;;;;6219964;28;20105;-71
2022/08/29 14:31:57;;;;;;;81.47;44.25;;;23.80;58.90;;;;;;6218426;28;20084;-71
2022/08/29 14:34:57;;;;;;;81.05;42.85;;;23.90;58.90;;;;;;6225846;28;20083;-71
2022/08/29 14:37:59;;;;;;;74.95;40.92;;;23.90;58.80;;;;;;6218788;28;20038;-71
2022/08/29 14:41:00;;;;;;;57.83;34.88;;;23.80;58.80;;;;;;6217779;28;20022;-71
2022/08/29 14:44:01;;;;;;;64.00;34.03;;;23.90;58.70;;;;;;6217486;28;20667;-71
2022/08/29 14:47:01;;;;;;;66.40;36.35;;;23.90;58.70;;;;;;6218610;28;20034;-72
2022/08/29 14:50:04;;;;;;;71.28;38.35;;;23.80;58.80;;;;;;6225448;28;20030;-71
2022/08/29 14:53:05;;;;;;;69.28;38.20;;;23.80;58.90;;;;;;6348232;28;20023;-71
2022/08/29 14:56:06;;;;;;;66.35;37.17;;;23.80;58.90;;;;;;6281693;28;20044;-72
2022/08/29 14:59:07;;;;;;;65.68;37.03;;;23.80;59.00;;;;;;6221121;28;20114;-71
2022/08/29 15:02:08;;;;;;;66.32;36.20;;;23.80;59.00;;;;;;6220433;28;20065;-72
2022/08/29 15:05:10;;;;;;;61.25;37.50;;;23.80;59.00;;;;;;6220443;28;20559;-72
2022/08/29 15:08:11;;;;;;;63.65;36.55;;;23.80;59.00;;;;;;6220465;28;20033;-71
2022/08/29 15:11:12;;;;;;;65.43;36.92;;;23.80;59.00;;;;;;6220332;28;20059;-71
2022/08/29 15:14:13;;;;;;;66.78;36.70;;;23.80;59.00;;;;;;6220492;28;20022;-71
2022/08/29 15:17:14;;;;;;;68.07;35.80;;;23.80;59.00;;;;;;6220479;28;20641;-71
2022/08/29 15:20:15;;;;;;;61.67;34.35;;;23.80;59.00;;;;;;6220032;28;20030;-71
2022/08/29 15:23:15;;;;;;;60.83;34.58;;;23.80;59.00;;;;;;6219713;28;20022;-72
2022/08/29 15:26:16;;;;;;;67.72;35.55;;;23.80;59.00;;;;;;6219896;28;20033;-71
2022/08/29 15:29:17;;;;;;;62.38;35.10;;;23.80;59.00;;;;;;6218783;28;20412;-71
2022/08/29 15:32:21;;;;;;;56.67;32.33;;;23.80;59.00;;;;;;6220330;28;20030;-72
2022/08/29 15:35:21;;;;;;;54.33;30.90;;;23.80;59.00;;;;;;6218251;28;20018;-72
2022/08/29 15:38:22;;;;;;;54.88;31.33;;;23.80;59.00;;;;;;6220102;28;20047;-71
2022/08/29 15:41:23;;;;;;;60.88;32.42;;;23.80;59.00;;;;;;6218029;28;20060;-71
2022/08/29 15:44:23;;;;;;;52.95;31.48;;;23.90;59.10;;;;;;6219374;28;20032;-72
2022/08/29 15:47:24;;;;;;;52.55;31.77;;;23.80;59.00;;;;;;6218394;28;20030;-73
2022/08/29 15:50:26;;;;;;;53.08;30.80;;;23.90;59.00;;;;;;6218584;28;20033;-71
2022/08/29 15:53:27;;;;;;;50.20;30.83;;;23.80;59.00;;;;;;6218508;28;20133;-71
2022/08/29 15:56:33;;;;;;;50.20;30.45;;;23.90;59.00;;;;;;6218384;28;20018;-72